Bookmark and Share
Track history (hours):
 

Mars

Last reported at 2014-Apr-17 22:32 UTC. Time now 2014-Apr-18 00:25 UTC.
Position N 55°17' E 014°48'.

Length 14 m; draft 1.7 m.

Type: Pilot. MMSI: 219001058.

NotesDate/timePositionNaut miles runAvg speedWind from/ knotsBaromVisibWave heightAir tempDewpointWater temp
2014-Apr-17 22:32N 55°17' E 014°48'0 0.0
2014-Apr-17 20:08N 55°17' E 014°48'0 0.0
2014-Apr-17 19:29N 55°17' E 014°48'0 0.0
2014-Apr-17 18:12N 55°17' E 014°48'0 0.0
2014-Apr-17 11:12N 55°17' E 014°48'0 0.0
2014-Apr-17 10:18N 55°17' E 014°48'2 2.7
2014-Apr-17 09:33N 55°18' E 014°51'2 0.5
2014-Apr-17 05:29N 55°17' E 014°48'0 0.0
2014-Apr-17 04:11N 55°17' E 014°48'0 0.0
2014-Apr-17 03:31N 55°17' E 014°48'0 0.0
2014-Apr-17 02:28N 55°17' E 014°48'0 0.0
2014-Apr-17 01:33N 55°17' E 014°48'0 0.0
2014-Apr-17 00:27N 55°17' E 014°48'0 0.0
2014-Apr-16 23:33N 55°17' E 014°48'0 0.0
2014-Apr-16 22:33N 55°17' E 014°48'0 0.0
2014-Apr-16 21:33N 55°17' E 014°48'0 0.0
2014-Apr-16 20:33N 55°17' E 014°48'0 0.0
2014-Apr-16 19:33N 55°17' E 014°48'0 0.0
2014-Apr-16 18:28N 55°17' E 014°48'0 0.0
2014-Apr-16 17:33N 55°17' E 014°48'0 0.0
2014-Apr-16 16:27N 55°17' E 014°48'0 0.0
2014-Apr-16 15:27N 55°17' E 014°48'0 0.0
2014-Apr-16 12:33N 55°17' E 014°48'0 0.0
2014-Apr-16 11:33N 55°17' E 014°48'0 0.0
2014-Apr-16 10:26N 55°17' E 014°48'0 0.0
2014-Apr-16 09:08N 55°17' E 014°48'0 0.0
2014-Apr-16 07:32N 55°17' E 014°48'0 0.0
2014-Apr-16 06:08N 55°17' E 014°48'0 0.0
2014-Apr-16 04:14N 55°17' E 014°48'0 0.0
2014-Apr-16 03:32N 55°17' E 014°48'0 0.0
2014-Apr-16 01:32N 55°17' E 014°48'0 0.0
2014-Apr-16 00:26N 55°17' E 014°48'0 0.0
2014-Apr-15 23:32N 55°17' E 014°48'0 0.0
2014-Apr-15 22:32N 55°17' E 014°48'0 0.0
2014-Apr-15 19:26N 55°17' E 014°48'0 0.0
2014-Apr-15 18:32N 55°17' E 014°48'0 0.0
2014-Apr-15 17:26N 55°17' E 014°48'0 0.0
2014-Apr-15 16:32N 55°17' E 014°48'0 0.0
2014-Apr-15 15:25N 55°17' E 014°48'0 0.0
2014-Apr-15 14:33N 55°17' E 014°48'0 0.0
2014-Apr-15 12:34N 55°17' E 014°48'0 0.0
2014-Apr-15 11:34N 55°17' E 014°48'0 0.0
2014-Apr-15 10:34N 55°17' E 014°48'0 0.0
2014-Apr-15 09:32N 55°17' E 014°48'0 0.0
2014-Apr-15 08:34N 55°17' E 014°48'0 0.0
2014-Apr-15 07:33N 55°17' E 014°48'0 0.0
2014-Apr-15 05:32N 55°17' E 014°48'0 0.0
2014-Apr-15 03:34N 55°17' E 014°48'0 0.0
2014-Apr-15 02:33N 55°17' E 014°48'0 0.0
2014-Apr-15 01:31N 55°17' E 014°48'0 0.0
2014-Apr-15 00:34N 55°17' E 014°48'3 2.7
2014-Apr-14 23:34N 55°19' E 014°52'3 2.6
2014-Apr-14 22:32N 55°17' E 014°48'0 0.0
2014-Apr-14 21:30N 55°17' E 014°48'0 0.0
2014-Apr-14 20:33N 55°17' E 014°48'0 0.0
2014-Apr-14 19:32N 55°17' E 014°48'0 0.0
2014-Apr-14 18:30N 55°17' E 014°48'2 1.0
2014-Apr-14 16:34N 55°18' E 014°47'1 0.5
2014-Apr-14 15:34N 55°19' E 014°46'0 0.0
2014-Apr-14 05:33N 55°19' E 014°46'2 0.3
2014-Apr-13 21:32N 55°17' E 014°48'0 0.0
2014-Apr-13 20:32N 55°17' E 014°48'0 0.0
2014-Apr-13 17:31N 55°17' E 014°48'0 0.0
2014-Apr-13 16:13N 55°17' E 014°48'2 2.4
2014-Apr-13 15:33N 55°18' E 014°50'2 1.5
2014-Apr-13 14:32N 55°17' E 014°48'1 1.0
2014-Apr-13 13:33N 55°18' E 014°48'1 0.9
2014-Apr-13 12:25N 55°17' E 014°48'0 0.0
2014-Apr-13 11:13N 55°17' E 014°48'0 0.0
2014-Apr-13 10:31N 55°17' E 014°48'0 0.0
2014-Apr-13 09:25N 55°17' E 014°48'0 0.0
2014-Apr-13 06:22N 55°17' E 014°48'0 0.0
2014-Apr-13 05:28N 55°17' E 014°48'0 0.0
2014-Apr-13 04:29N 55°17' E 014°48'0 0.0
2014-Apr-13 02:27N 55°17' E 014°48'0 0.0
2014-Apr-13 01:21N 55°17' E 014°48'0 0.0
2014-Apr-13 00:09N 55°17' E 014°48'0 0.0
2014-Apr-12 23:21N 55°17' E 014°48'0 0.0
2014-Apr-12 22:33N 55°17' E 014°48'1 1.1
2014-Apr-12 21:34N 55°18' E 014°47'1 0.5
2014-Apr-12 19:14N 55°17' E 014°48'0 0.0
2014-Apr-12 18:20N 55°17' E 014°48'0 0.0
2014-Apr-12 17:14N 55°17' E 014°48'0 0.0
2014-Apr-12 13:22N 55°17' E 014°48'0 0.0
2014-Apr-12 08:10N 55°17' E 014°48'0 0.0
2014-Apr-12 06:28N 55°17' E 014°48'2 0.6
2014-Apr-12 02:33N 55°18' E 014°51'2 0.5
2014-Apr-11 21:27N 55°17' E 014°48'0 0.0
2014-Apr-11 19:09N 55°17' E 014°48'0 0.0
2014-Apr-11 16:26N 55°17' E 014°48'0 0.0
2014-Apr-11 14:32N 55°17' E 014°48'0 0.0
2014-Apr-11 13:26N 55°17' E 014°48'0 0.0
2014-Apr-11 09:21N 55°17' E 014°48'0 0.0
2014-Apr-11 07:27N 55°17' E 014°48'0 0.0
2014-Apr-11 05:32N 55°17' E 014°48'0 0.0
2014-Apr-11 04:32N 55°17' E 014°48'0 0.0
2014-Apr-11 03:08N 55°17' E 014°48'0 0.0
2014-Apr-11 02:20N 55°17' E 014°48'0 0.0
2014-Apr-11 01:26N 55°17' E 014°48'0 0.0
2014-Apr-11 00:20N 55°17' E 014°48'0 0.0
2014-Apr-10 23:26N 55°17' E 014°48'0 0.0
2014-Apr-10 20:20N 55°17' E 014°48'0 0.0
2014-Apr-10 19:26N 55°17' E 014°48'0 0.0
2014-Apr-10 18:32N 55°17' E 014°48'0 0.0
2014-Apr-10 17:26N 55°17' E 014°48'0 0.0
2014-Apr-10 16:26N 55°17' E 014°48'0 0.0
2014-Apr-10 14:32N 55°17' E 014°48'0 0.0
2014-Apr-10 13:32N 55°17' E 014°48'0 0.0
2014-Apr-10 12:26N 55°17' E 014°48'0 0.0
2014-Apr-10 11:29N 55°17' E 014°48'0 0.0
2014-Apr-10 10:06N 55°17' E 014°48'0 0.0
2014-Apr-10 08:24N 55°17' E 014°48'0 0.0
2014-Apr-10 07:06N 55°17' E 014°48'0 0.0
2014-Apr-10 06:30N 55°17' E 014°48'0 0.0
2014-Apr-10 05:33N 55°17' E 014°48'0 0.0
2014-Apr-10 04:25N 55°17' E 014°48'0 0.0
2014-Apr-10 01:14N 55°17' E 014°48'2 1.2
2014-Apr-09 23:33N 55°19' E 014°47'2 1.5
2014-Apr-09 22:11N 55°17' E 014°48'2 0.3
2014-Apr-09 15:33N 55°19' E 014°47'2 1.8
2014-Apr-09 14:20N 55°17' E 014°48'0 0.0
2014-Apr-09 05:25N 55°17' E 014°48'0 0.0
2014-Apr-09 04:31N 55°17' E 014°48'1 0.3
2014-Apr-09 02:33N 55°17' E 014°49'1 0.3
2014-Apr-09 00:26N 55°17' E 014°48'0 0.0
2014-Apr-08 23:20N 55°17' E 014°48'0 0.0
2014-Apr-08 22:32N 55°17' E 014°48'0 0.0
2014-Apr-08 21:29N 55°17' E 014°48'0 0.0
2014-Apr-08 20:32N 55°17' E 014°48'0 0.0
2014-Apr-08 19:33N 55°17' E 014°48'0 0.0
2014-Apr-08 18:33N 55°17' E 014°48'0 0.0
2014-Apr-08 17:15N 55°17' E 014°48'0 0.0
2014-Apr-08 16:30N 55°17' E 014°48'0 0.0
2014-Apr-08 15:27N 55°17' E 014°48'0 0.0
2014-Apr-08 14:27N 55°17' E 014°48'0 0.0
2014-Apr-08 13:24N 55°17' E 014°48'0 0.3
2014-Apr-08 12:33N 55°17' E 014°48'0 0.2
2014-Apr-08 11:25N 55°17' E 014°48'0 0.0
2014-Apr-08 10:07N 55°17' E 014°48'0 0.0
2014-Apr-08 09:25N 55°17' E 014°48'0 0.0
2014-Apr-08 05:31N 55°17' E 014°48'0 0.0
2014-Apr-08 04:31N 55°17' E 014°48'0 0.0
2014-Apr-08 03:18N 55°17' E 014°48'0 0.0
2014-Apr-08 02:06N 55°17' E 014°48'0 0.0
2014-Apr-08 01:30N 55°17' E 014°48'0 0.0
2014-Apr-08 00:12N 55°17' E 014°48'0 0.0
2014-Apr-07 23:30N 55°17' E 014°48'  

Dump ship's entire track history

sailing weather and tide predictions

Mars — XPC8385 — position and weather